Bay Area Logo

San Jose, CA Condo Real Estate Listings

443 Total Real Estate Listings * Click on table heading to sort
Date Posted Property Type Style Address Price Living Area Lot Size Price/Sq Ft.
2018-02-17 Condo 1335 Shawn Drive San Jose, CA 95118 $449,950 798 sq. ft. 3,049 sq. ft. $564
2018-02-17 Condo 3065 Shadow Springs Place San Jose, CA 95121 $425,000 866 sq. ft. 871 sq. ft. $491
2018-02-17 Condo 5071 Cribari Bluffs San Jose, CA 95135 $435,000 1,223 sq. ft. 6,534 sq. ft. $356
2018-02-16 Condo 1906 Vinedale Sq San Jose, CA 95132 $724,950 1,240 sq. ft. 1,307 sq. ft. $585
2018-02-16 Condo 7733 Kilmarnok Drive San Jose, CA 95135 $775,000 1,804 sq. ft. 7,405 sq. ft. $430
2018-02-16 Condo Contemporary 1055 Capitol Avenue San Jose, CA 95133 $450,000 832 sq. ft. 1,307 sq. ft. $541
2018-02-16 Condo 737 Batista Drive San Jose, CA 95136 $799,000 1,810 sq. ft. 871 sq. ft. $441
2018-02-16 Condo 794 Warring Drive San Jose, CA 95123 $505,000 903 sq. ft. 3,049 sq. ft. $559
2018-02-16 Condo Contemporary 8427 Beaujolais Court San Jose, CA 95135 $739,950 1,571 sq. ft. 2,614 sq. ft. $471
2018-02-16 Condo 46 Cherryton Lane San Jose, CA 95136 $645,000 1,228 sq. ft. 436 sq. ft. $525
2018-02-15 Condo Contemporary 1655 Latitude Drive San Jose, CA 95124 $988,000 1,535 sq. ft. 1,307 sq. ft. $644
2018-02-15 Condo 2126 Sunstruck Court San Jose, CA 95125 $760,000 1,480 sq. ft. 1,307 sq. ft. $514
2018-02-15 Condo 3642 Sawtooth Court San Jose, CA 95111 $495,000 1,157 sq. ft. 1,307 sq. ft. $428
2018-02-15 Condo 5382 Colony Green Drive San Jose, CA 95123 $680,000 1,260 sq. ft. 1,307 sq. ft. $540
2018-02-15 Condo 5518 Judith Street San Jose, CA 95123 $399,999 798 sq. ft. 3,049 sq. ft. $501
2018-02-15 Condo 611 Berryessa Road San Jose, CA 95112 $839,000 1,388 sq. ft. 871 sq. ft. $604
2018-02-15 Condo Cape Cod 537 Mill River Lane San Jose, CA 95134 $1,120,000 1,887 sq. ft. 1,307 sq. ft. $594
2018-02-14 Condo 5501 Judith Street San Jose, CA 95123 $449,950 798 sq. ft. 3,049 sq. ft. $564
2018-02-14 Condo 1870 Midnight Circle San Jose, CA 95133 $919,000 1,391 sq. ft. 1,307 sq. ft. $661
2018-02-14 Condo 410 Galleria Drive San Jose, CA 95134 $975,000 1,564 sq. ft. 17,860 sq. ft. $623
2018-02-14 Condo 5498 Tradewinds Walkway San Jose, CA 95123 $415,000 810 sq. ft. 3,049 sq. ft. $512
2018-02-13 Condo Traditional 784 Teatree Ct San Jose, CA 95128 $448,880 658 sq. ft. 1,307 sq. ft. $682
2018-02-13 Condo 5648 Bluegrass Lane San Jose, CA 95118 $799,000 1,318 sq. ft. 1,742 sq. ft. $606
2018-02-13 Condo 3583 Gum Tree Dr San Jose, CA 95111 $549,000 1,157 sq. ft. 1,307 sq. ft. $474
2018-02-13 Condo Contemporary 144 S. 3rd Street San Jose, CA 95112 $620,000 1,023 sq. ft. 871 sq. ft. $606
2018-02-13 Condo Traditional 784 Teatree Court San Jose, CA 95128 $448,880 658 sq. ft. $682
2018-02-13 Condo 1427 Mcquesten Drive San Jose, CA 95122 $469,000 1,150 sq. ft. 871 sq. ft. $408
2018-02-13 Condo 1310 Saddle Rack Street San Jose, CA 95126 $685,000 1,108 sq. ft. 871 sq. ft. $618
2018-02-13 Condo 38 Almaden Boulevard San Jose, CA 95110 $978,000 1,220 sq. ft. $802
2018-02-13 Condo 402 Galleria Drive San Jose, CA 95134 $1,088,000 1,920 sq. ft. 1,307 sq. ft. $567
2018-02-13 Condo 5312 Borneo Circle San Jose, CA 95123 $564,888 1,122 sq. ft. 7,405 sq. ft. $503
2018-02-13 Condo Traditional 4814 Lakebird Place San Jose, CA 95124 $749,000 1,212 sq. ft. 4,792 sq. ft. $618
2018-02-13 Condo 125 Laurel Grove Lane San Jose, CA 95126 $1,050,000 1,650 sq. ft. 436 sq. ft. $636
2018-02-13 Condo 100 Kenbrook Circle San Jose, CA 95111 $549,000 1,164 sq. ft. 4,356 sq. ft. $472
2018-02-13 Condo 668 Galleon Court San Jose, CA 95133 $710,000 1,342 sq. ft. 1,307 sq. ft. $529
2018-02-13 Condo 638 Cedarville Lane San Jose, CA 95133 $725,000 1,316 sq. ft. 1,307 sq. ft. $551
2018-02-13 Condo 1352 Greenwich Court San Jose, CA 95125 $799,000 1,071 sq. ft. 871 sq. ft. $746
2018-02-12 Condo 2952 Lambeth Court San Jose, CA 95132 $725,000 1,240 sq. ft. 1,307 sq. ft. $585
2018-02-12 Condo 4546 Cimarron River Court San Jose, CA 95136 $719,000 1,441 sq. ft. 1,742 sq. ft. $499
2018-02-12 Condo 1436 Glenpine Drive San Jose, CA 95125 $750,000 1,008 sq. ft. 1,742 sq. ft. $744
2018-02-09 Condo Traditional 8363 Riesling Way San Jose, CA 95135 $679,000 1,646 sq. ft. 2,178 sq. ft. $413
2018-02-09 Condo 1223 Yarwood Court San Jose, CA 95128 $599,888 922 sq. ft. 1,307 sq. ft. $651
2018-02-09 Condo 1103 Westbury Drive San Jose, CA 95131 $798,888 1,213 sq. ft. 436 sq. ft. $659
2018-02-09 Condo 1087 Harebell Place San Jose, CA 95131 $1,099,000 1,622 sq. ft. 436 sq. ft. $678
2018-02-09 Condo 409 Camille Circle San Jose, CA 95134 $1,075,000 2,030 sq. ft. 1,742 sq. ft. $530
2018-02-09 Condo 38 Almaden Boulevard San Jose, CA 95110 $559,000 655 sq. ft. 21,344 sq. ft. $853
2018-02-09 Condo 3133 Kenland Drive San Jose, CA 95111 $489,888 1,094 sq. ft. 5,227 sq. ft. $448
2018-02-08 Condo 1055 Capitol Avenue San Jose, CA 95133 $528,000 832 sq. ft. 871 sq. ft. $635
2018-02-08 Condo 2411 La Terrace Circle San Jose, CA 95123 $560,000 995 sq. ft. 3,920 sq. ft. $563
2018-02-08 Condo 703 Balfour Drive San Jose, CA 95111 $434,900 867 sq. ft. 436 sq. ft. $502
2018-02-08 Condo 5497 Tradewinds Ww San Jose, CA 95123 $399,900 798 sq. ft. 3,049 sq. ft. $501
2018-02-08 Condo 329 Blossom Hill Road San Jose, CA 95123 $429,888 798 sq. ft. 3,049 sq. ft. $539
2018-02-08 Condo 8416 Chenin Blanc Lane San Jose, CA 95135 $689,000 1,497 sq. ft. 2,614 sq. ft. $460
2018-02-08 Condo 97 Saint James Street San Jose, CA 95112 $699,000 1,203 sq. ft. 1,307 sq. ft. $581
2018-02-08 Condo Contemporary 335 Titleist Ct San Jose, CA 95127 $799,000 2,106 sq. ft. 3,485 sq. ft. $379
2018-02-08 Condo 335 Titleist Court San Jose, CA 95127 $799,000 2,106 sq. ft. 2,614 sq. ft. $379
2018-02-08 Condo Ranch 1128 Holly Oak Circle San Jose, CA 95120 $980,000 1,703 sq. ft. 2,614 sq. ft. $575
2018-02-08 Condo 4892 Indian River Drive San Jose, CA 95136 $699,000 1,452 sq. ft. 6,970 sq. ft. $481
2018-02-08 Condo Contemporary 1550 Technology Drive San Jose, CA 95110 $540,000 831 sq. ft. 871 sq. ft. $650
2018-02-08 Condo 5505 Great Oaks Parkway San Jose, CA 95123 $795,000 1,356 sq. ft. 436 sq. ft. $586
2018-02-08 Condo 2214 Beech Circle San Jose, CA 95131 $949,000 1,536 sq. ft. 436 sq. ft. $618
2018-02-08 Condo 1304 Weepinggate Lane San Jose, CA 95136 $670,000 1,296 sq. ft. 0 sq. ft. $517
2018-02-07 Condo 5488 Judith Street San Jose, CA 95123 $425,000 903 sq. ft. 3,049 sq. ft. $471
2018-02-07 Condo 559 Cityscape Place San Jose, CA 95136 $799,000 1,443 sq. ft. 4,356 sq. ft. $554
2018-02-07 Condo 866 Gilchrist Drive San Jose, CA 95133 $465,000 810 sq. ft. 9,583 sq. ft. $574
2018-02-07 Condo 7000 Gregorich Drive San Jose, CA 95138 $629,000 1,377 sq. ft. 1,307 sq. ft. $457
2018-02-07 Condo 434 Camille Circle San Jose, CA 95134 $1,088,000 1,961 sq. ft. 1,742 sq. ft. $555
2018-02-07 Condo 429 Colony Cove Drive San Jose, CA 95123 $499,000 919 sq. ft. 871 sq. ft. $543
2018-02-07 Condo 746 Northrup Street San Jose, CA 95126 $519,500 717 sq. ft. 3,049 sq. ft. $725
2018-02-07 Condo 1620 Seacreek Way San Jose, CA 95121 $574,999 1,234 sq. ft. 1,307 sq. ft. $466
2018-02-07 Condo 37 Torregata Loop San Jose, CA 95134 $799,000 1,130 sq. ft. 871 sq. ft. $707
2018-02-06 Condo Contemporary 288 Tradewinds Drive San Jose, CA 95123 $399,800 722 sq. ft. $554
2018-02-06 Condo 3588 Ivalynn Circle San Jose, CA 95132 $728,000 1,019 sq. ft. 4,792 sq. ft. $714
2018-02-06 Condo Mediterranean 435 Milan Drive San Jose, CA 95134 $999,000 1,637 sq. ft. 18,295 sq. ft. $610
2018-02-06 Condo 1059 Villa Maria Court San Jose, CA 95125 $799,000 1,585 sq. ft. 1,742 sq. ft. $504
2018-02-06 Condo 1310 Saddle Rack Street San Jose, CA 95126 $550,000 790 sq. ft. 871 sq. ft. $696
2018-02-06 Condo 4711 Capay Drive San Jose, CA 95118 $475,000 798 sq. ft. 3,049 sq. ft. $595
2018-02-06 Condo Contemporary 2583 Gimelli Way San Jose, CA 95133 $529,900 975 sq. ft. 1,307 sq. ft. $543
2018-02-05 Condo 4649 Hampton Falls Place San Jose, CA 95136 $850,000 1,992 sq. ft. 871 sq. ft. $427
2018-02-05 Condo 801 Winchester Boulevard San Jose, CA 95128 $579,000 692 sq. ft. 871 sq. ft. $837
2018-02-05 Condo 6032 Calle De Suerte San Jose, CA 95124 $979,000 2,235 sq. ft. 436 sq. ft. $438
2018-02-05 Condo 475 Milan Drive San Jose, CA 95134 $699,000 948 sq. ft. 25,265 sq. ft. $737
2018-02-04 Condo Traditional 791 Beaver Creek Way San Jose, CA 95133 $629,000 1,050 sq. ft. 1,742 sq. ft. $599
2018-02-03 Condo Contemporary 314 Giovanni Court San Jose, CA 95133 $688,888 1,473 sq. ft. 1,307 sq. ft. $468
2018-02-03 Condo Contemporary 2822 Paseo Lane San Jose, CA 95124 $1,199,950 2,438 sq. ft. 1,307 sq. ft. $492
2018-02-03 Condo Mediterranean 233 William Manly Street San Jose, CA 95136 $962,573 1,905 sq. ft. 436 sq. ft. $505
2018-02-02 Condo 88 San Fernando Street San Jose, CA 95113 $1,350,000 1,347 sq. ft. 6,970 sq. ft. $1,002
2018-02-02 Condo 878 La Barbera Drive San Jose, CA 95126 $499,000 808 sq. ft. 871 sq. ft. $618
2018-02-02 Condo 5322 Borneo Circle San Jose, CA 95123 $588,000 1,246 sq. ft. 7,405 sq. ft. $472
2018-02-02 Condo 7319 Via Laguna San Jose, CA 95135 $725,000 1,568 sq. ft. 6,970 sq. ft. $462
2018-02-02 Condo Contemporary 2059 Foxhall Loop San Jose, CA 95125 $799,000 1,004 sq. ft. 436 sq. ft. $796
2018-02-02 Condo 280 Tradewinds Drive San Jose, CA 95123 $599,888 1,252 sq. ft. 1,307 sq. ft. $479
2018-02-02 Condo 479 Marble Arch Avenue San Jose, CA 95136 $699,000 1,104 sq. ft. 436 sq. ft. $633
2018-02-02 Condo 1118 Shenandoah Drive San Jose, CA 95125 $925,000 1,684 sq. ft. 2,178 sq. ft. $549
2018-02-02 Condo 6143 Camino Verde Drive San Jose, CA 95119 $530,000 992 sq. ft. 871 sq. ft. $534
2018-02-02 Condo 341 Shadow Run Drive San Jose, CA 95110 $550,000 871 sq. ft. 5,227 sq. ft. $631
2018-02-01 Condo Traditional 8426 Beaujolais Court San Jose, CA 95135 $740,000 1,571 sq. ft. 2,614 sq. ft. $471
2018-02-01 Condo 528 Shadowgraph Drive San Jose, CA 95110 $550,000 871 sq. ft. 871 sq. ft. $631
2018-02-01 Condo 5839 Lake Crowley Place San Jose, CA 95123 $655,000 1,002 sq. ft. 1,002 sq. ft. $654
2018-02-01 Condo Contemporary 5839 Lake Crowley Pl San Jose, CA 95123 $655,000 1,002 sq. ft. 436 sq. ft. $654
2018-02-01 Condo 1140 Silver Canyon Drive San Jose, CA 95120 $1,058,000 1,739 sq. ft. 3,920 sq. ft. $608
2018-02-01 Condo 568 Palmetto Drive San Jose, CA 95111 $515,000 1,157 sq. ft. 1,307 sq. ft. $445
2018-01-31 Condo 1835 Indian Creek Court San Jose, CA 95148 $598,000 1,473 sq. ft. 2,178 sq. ft. $406
2018-01-31 Condo 1357 Phelps Avenue San Jose, CA 95117 $535,000 840 sq. ft. 1,307 sq. ft. $637
2018-01-31 Condo 7150 Rainbow Drive San Jose, CA 95129 $799,000 1,050 sq. ft. 28,750 sq. ft. $761
2018-01-31 Condo 2865 Bascom Avenue San Jose, CA 95124 $600,000 841 sq. ft. 871 sq. ft. $713
2018-01-31 Condo 2435 Sequester Court San Jose, CA 95133 $449,700 778 sq. ft. 871 sq. ft. $578
2018-01-30 Condo 420 Branham Lane San Jose, CA 95111 $675,000 1,599 sq. ft. 1,742 sq. ft. $422
2018-01-30 Condo 1718 San Antonio Street San Jose, CA 95116 $750,000 1,405 sq. ft. 2,178 sq. ft. $534
2018-01-30 Condo Mediterranean 425 Navaro Way San Jose, CA 95134 $898,000 1,240 sq. ft. 18,295 sq. ft. $724
2018-01-30 Condo Contemporary 3097 Lina Street San Jose, CA 95136 $879,800 1,668 sq. ft. 436 sq. ft. $527
2018-01-30 Condo 3183 White Chapel Way San Jose, CA 95136 $699,000 1,057 sq. ft. 871 sq. ft. $661
2018-01-29 Condo 1760 Shady Creek Court San Jose, CA 95148 $649,999 1,460 sq. ft. 2,178 sq. ft. $445
2018-01-29 Condo Contemporary 6151 Camino Verde Drive San Jose, CA 95119 $535,000 992 sq. ft. 871 sq. ft. $539
2018-01-29 Condo 1315 Venturi Drive San Jose, CA 95132 $825,000 1,450 sq. ft. 436 sq. ft. $569
2018-01-29 Condo 4717 Canyon River Court San Jose, CA 95136 $759,900 1,760 sq. ft. 1,742 sq. ft. $432
2018-01-29 Condo 1124 Yarwood Court San Jose, CA 95128 $598,000 922 sq. ft. 1,307 sq. ft. $649
2018-01-28 Condo 2450 Sequester Court San Jose, CA 95133 $499,950 890 sq. ft. 871 sq. ft. $562
2018-01-27 Condo 5338 Monterey Highway San Jose, CA 95111 $419,000 950 sq. ft. 1,307 sq. ft. $441
2018-01-26 Condo 3179 Shofner Place San Jose, CA 95111 $449,000 1,131 sq. ft. 436 sq. ft. $397
2018-01-26 Condo 1335 Shawn Drive San Jose, CA 95118 $489,950 798 sq. ft. 3,049 sq. ft. $614
2018-01-26 Condo 623 Hermes Court San Jose, CA 95111 $599,168 1,496 sq. ft. 3,920 sq. ft. $401
2018-01-26 Condo 5371 Cribari Crest San Jose, CA 95135 $425,000 1,223 sq. ft. 4,792 sq. ft. $348
2018-01-26 Condo 5622 Calmor Avenue San Jose, CA 95123 $500,000 903 sq. ft. 3,049 sq. ft. $554
2018-01-26 Condo 2451 Sequester Court San Jose, CA 95133 $498,000 890 sq. ft. 797 sq. ft. $560
2018-01-26 Condo 5518 Judith Street San Jose, CA 95123 $499,000 903 sq. ft. 3,049 sq. ft. $553
2018-01-26 Condo 5473 Tyhurst Ww San Jose, CA 95123 $399,000 798 sq. ft. 3,049 sq. ft. $500
2018-01-25 Condo Contemporary 1374 Branham Lane San Jose, CA 95118 $479,000 903 sq. ft. 3,485 sq. ft. $530
2018-01-25 Condo 4634 Adobe River Court San Jose, CA 95136 $685,000 1,441 sq. ft. 1,742 sq. ft. $475
2018-01-25 Condo 7106 Indian Wells Court San Jose, CA 95139 $669,000 1,640 sq. ft. 3,049 sq. ft. $408
2018-01-25 Condo 309 Tradewinds Drive San Jose, CA 95123 $388,888 722 sq. ft. 871 sq. ft. $539
2018-01-25 Condo 756 Overture Court San Jose, CA 95134 $615,000 776 sq. ft. 871 sq. ft. $793
2018-01-25 Condo 785 Warring Drive San Jose, CA 95123 $425,000 810 sq. ft. 3,049 sq. ft. $525
2018-01-24 Condo Spanish 259 Capitol Avenue San Jose, CA 95127 $399,999 955 sq. ft. 871 sq. ft. $419
2018-01-24 Condo 853 Georgetown Place San Jose, CA 95126 $998,000 1,584 sq. ft. 1,307 sq. ft. $630
2018-01-24 Condo 1036 Foxglove Place San Jose, CA 95131 $1,150,000 1,622 sq. ft. 871 sq. ft. $709
2018-01-24 Condo 891 Wyman Way San Jose, CA 95133 $430,000 903 sq. ft. 6,617 sq. ft. $476
2018-01-24 Condo 88 San Fernando Street San Jose, CA 95113 $1,288,000 1,165 sq. ft. 3,485 sq. ft. $1,106
2018-01-24 Condo 333 Santana Row San Jose, CA 95128 $1,250,000 1,099 sq. ft. 27,878 sq. ft. $1,137
2018-01-24 Condo 1206 Sierra Village Way San Jose, CA 95132 $838,000 1,430 sq. ft. 1,742 sq. ft. $586
2018-01-24 Condo 5462 Spinnaker Ww San Jose, CA 95123 $492,000 903 sq. ft. 3,049 sq. ft. $545
2018-01-24 Condo 807 Beaver Creek Way San Jose, CA 95133 $639,950 1,042 sq. ft. 1,307 sq. ft. $614
2018-01-23 Condo 839 Lotus Flower Loop San Jose, CA 95123 $899,000 2,258 sq. ft. 1,742 sq. ft. $398
2018-01-23 Condo 801 Winchester Boulevard San Jose, CA 95128 $759,900 986 sq. ft. 1,307 sq. ft. $771
2018-01-23 Condo Contemporary 2500 Autumnvale Avenue San Jose, CA 95131 $848,000 1,536 sq. ft. 1,742 sq. ft. $552
2018-01-23 Condo 1375 Lick Avenue San Jose, CA 95110 $649,000 1,096 sq. ft. 1,307 sq. ft. $592
2018-01-23 Condo 3643 Cabernet Vineyards Circle San Jose, CA 95117 $838,000 1,496 sq. ft. 871 sq. ft. $560
2018-01-23 Condo 2302 Balme Drive San Jose, CA 95122 $349,999 648 sq. ft. 871 sq. ft. $540
2018-01-22 Condo 1126 Delmas Avenue San Jose, CA 95125 $799,000 1,376 sq. ft. 1,307 sq. ft. $581
2018-01-20 Condo 5955 Post Oak Circle San Jose, CA 95120 $1,395,000 2,757 sq. ft. 3,920 sq. ft. $506
2018-01-20 Condo 259 Capitol Avenue San Jose, CA 95127 $458,888 955 sq. ft. 871 sq. ft. $481
2018-01-19 Condo 217 William Manly Street San Jose, CA 95136 $870,996 1,668 sq. ft. 1,742 sq. ft. $522
2018-01-19 Condo 5059 Sutter Creek Circle San Jose, CA 95136 $660,000 1,268 sq. ft. 2,614 sq. ft. $520
2018-01-19 Condo Contemporary 1292 Lick Avenue San Jose, CA 95110 $698,800 1,305 sq. ft. 871 sq. ft. $535
2018-01-19 Condo 5176 Meridian Avenue San Jose, CA 95118 $959,000 1,734 sq. ft. 2,178 sq. ft. $553
2018-01-19 Condo 2925 Florence Avenue San Jose, CA 95127 $409,000 874 sq. ft. $468
2018-01-19 Condo 224 Coy Drive San Jose, CA 95123 $490,000 903 sq. ft. 1,742 sq. ft. $543
2018-01-19 Condo 2265 Summerton Drive San Jose, CA 95122 $399,000 746 sq. ft. 871 sq. ft. $535
2018-01-18 Condo 1133 White Peach Way San Jose, CA 95133 $900,000 1,587 sq. ft. 871 sq. ft. $567
2018-01-18 Condo 7151 Calero Hills Court San Jose, CA 95139 $749,000 1,674 sq. ft. 2,178 sq. ft. $447
2018-01-18 Condo 363 Casselino Drive San Jose, CA 95136 $799,000 1,750 sq. ft. 1,307 sq. ft. $457
2018-01-18 Condo Contemporary 1098 Mallow Terrace San Jose, CA 95133 $886,000 1,528 sq. ft. 871 sq. ft. $580
2018-01-18 Condo 3483 Prince Philip Court San Jose, CA 95132 $628,000 1,176 sq. ft. 871 sq. ft. $534
2018-01-18 Condo Spanish 4276 Lautrec Drive San Jose, CA 95135 $998,000 1,532 sq. ft. 2,178 sq. ft. $651
2018-01-17 Condo 5435 Eagles Lane San Jose, CA 95123 $429,000 810 sq. ft. 3,049 sq. ft. $530
2018-01-17 Condo 2133 Luz Avenue San Jose, CA 95116 $399,000 956 sq. ft. 871 sq. ft. $417
2018-01-17 Condo 440 Navaro Place San Jose, CA 95134 $649,500 948 sq. ft. $685
2018-01-17 Condo 9035 Village View Drive San Jose, CA 95135 $1,125,000 2,025 sq. ft. 2,614 sq. ft. $556
2018-01-16 Condo 3071 Elk Ridge Court San Jose, CA 95136 $749,000 1,434 sq. ft. $522
2018-01-16 Condo 5501 Cribari Bend San Jose, CA 95135 $450,000 1,240 sq. ft. 1,307 sq. ft. $363
2018-01-16 Condo 7080 Indian Wells Court San Jose, CA 95139 $699,000 1,656 sq. ft. 2,178 sq. ft. $422
2018-01-16 Condo 5924 Kyburz Place San Jose, CA 95120 $1,375,000 2,571 sq. ft. 3,049 sq. ft. $535
2018-01-16 Condo Mediterranean 470 Navaro Way San Jose, CA 95134 $999,000 1,637 sq. ft. 19,166 sq. ft. $610
2018-01-16 Condo 300 Cedargate Lane San Jose, CA 95136 $675,000 1,308 sq. ft. 1,307 sq. ft. $516
2018-01-15 Condo 1262 Sierra Village Place San Jose, CA 95132 $850,000 1,445 sq. ft. 1,307 sq. ft. $588
2018-01-15 Condo Contemporary 3521 Jasmine Circle San Jose, CA 95135 $898,888 1,346 sq. ft. 436 sq. ft. $668
2018-01-15 Condo 5192 Meridian Avenue San Jose, CA 95118 $939,000 1,748 sq. ft. 3,049 sq. ft. $537
2018-01-15 Condo Ranch 1121 Trevino Terrace San Jose, CA 95120 $950,000 1,876 sq. ft. 2,178 sq. ft. $506
2018-01-15 Condo 5981 Post Oak Circle San Jose, CA 95120 $1,199,000 2,454 sq. ft. 2,614 sq. ft. $489
2018-01-15 Condo 247 Capitol Avenue San Jose, CA 95127 $315,000 777 sq. ft. $405
2018-01-13 Condo 5246 Makati Circle San Jose, CA 95123 $430,000 744 sq. ft. 1,307 sq. ft. $578
2018-01-13 Condo 688 Teatree Court San Jose, CA 95128 $599,000 922 sq. ft. 871 sq. ft. $650
2018-01-12 Condo 452 Don Marco Court San Jose, CA 95123 $625,000 1,439 sq. ft. 871 sq. ft. $434
2018-01-12 Condo 87 Van Cott Court San Jose, CA 95127 $600,000 1,368 sq. ft. 1,307 sq. ft. $439
2018-01-11 Condo 2212 La Terrace Cir San Jose, CA 95123 $525,000 904 sq. ft. 436 sq. ft. $581
2018-01-11 Condo Contemporary 609 La Maison Drive San Jose, CA 95128 $699,000 1,104 sq. ft. 4,356 sq. ft. $633
2018-01-10 Condo 809 Auzerais Avenue San Jose, CA 95126 $499,000 824 sq. ft. 1,307 sq. ft. $606
2018-01-10 Condo Mediterranean 2177 Alum Rock Avenue San Jose, CA 95116 $500,000 1,027 sq. ft. $487
2018-01-10 Condo Contemporary 1550 Technology Drive San Jose, CA 95110 $539,000 831 sq. ft. 762 sq. ft. $649
2018-01-10 Condo 1992 Prince George Drive San Jose, CA 95116 $349,000 560 sq. ft. 871 sq. ft. $623
2018-01-10 Condo 2335 Lava Drive San Jose, CA 95133 $650,000 1,199 sq. ft. 1,307 sq. ft. $542
2018-01-09 Condo 171 Ellicott Loop San Jose, CA 95123 $876,507 1,531 sq. ft. 871 sq. ft. $573
2018-01-08 Condo 4276 Lautrec Drive San Jose, CA 95135 $998,000 1,532 sq. ft. 2,178 sq. ft. $651
2018-01-06 Condo Contemporary; Mediterranean 1227 Water Lily Way San Jose, CA 95129 $1,499,890 1,912 sq. ft. 2,614 sq. ft. $784
2018-01-06 Condo 435 2nd Street San Jose, CA 95112 $575,000 730 sq. ft. 871 sq. ft. $788
2018-01-06 Condo 397 Don Basillo Way San Jose, CA 95123 $499,000 950 sq. ft. 871 sq. ft. $525
2018-01-05 Condo Contemporary 5502 Spinnaker Drive San Jose, CA 95123 $460,000 903 sq. ft. 3,049 sq. ft. $509
2018-01-05 Condo 3092 Manuel Street San Jose, CA 95136 $1,105,540 1,818 sq. ft. 436 sq. ft. $608
2018-01-05 Condo Mediterranean 6115 Country Club Parkway San Jose, CA 95138 $1,298,000 1,803 sq. ft. 1,307 sq. ft. $720
2018-01-05 Condo Contemporary; Mediterranean 1227 Water Lily Way San Jose, CA 95129 $1,499,890 1,912 sq. ft. 1,307 sq. ft. $784
2018-01-04 Condo 6317 Island Pine Way San Jose, CA 95119 $649,900 1,293 sq. ft. 436 sq. ft. $503
2018-01-02 Condo Traditional 462 Boxleaf Court San Jose, CA 95117 $545,000 712 sq. ft. 3,485 sq. ft. $765
2017-12-29 Condo 1646 Los Suenos Avenue San Jose, CA 95116 $545,000 1,254 sq. ft. 2,614 sq. ft. $435
2017-12-11 Condo 1026 Abruzzo San Jose, CA 95131 $880,096 1,171 sq. ft. 1,307 sq. ft. $752
2017-12-08 Condo 706 Avenue One San Jose, CA 95123 $898,200 1,712 sq. ft. 1,307 sq. ft. $525
2017-11-30 Condo Mediterranean 186 William Manly Street San Jose, CA 95136 $917,336 1,895 sq. ft. $484
2017-11-22 Condo 3157 Kenland Drive San Jose, CA 95111 $495,888 1,012 sq. ft. 871 sq. ft. $490
2017-11-20 Condo Mediterranean 3058 San Jose Vineyard Court San Jose, CA 95136 $912,051 1,905 sq. ft. $479
2017-11-13 Condo 1036 Onofrio #6 San Jose, CA 95131 $891,057 1,171 sq. ft. 1,307 sq. ft. $761
2017-10-26 Condo 1701 Flickinger Court San Jose, CA 95131 $599,000 852 sq. ft. 871 sq. ft. $703
2017-09-08 Condo 6970 Gregorich Drive San Jose, CA 95138 $530,000 1,093 sq. ft. 436 sq. ft. $485
2017-08-17 Condo 1417 Allegado Alley San Jose, CA 95128 $599,000 1,393 sq. ft. 1,742 sq. ft. $430
2017-06-21 Condo 101 Laurel Grove Ln San Jose, CA 95126 $819,000 1,640 sq. ft. 1,699 sq. ft. $499
2017-06-21 Condo 1103 Longshore Dr San Jose, CA 95128 $848,000 1,606 sq. ft. 3,485 sq. ft. $528
2017-06-21 Condo 7253 Via Vico San Jose, CA 95129 $888,000 1,192 sq. ft. 1,760 sq. ft. $745
2017-06-21 Condo 2505 Dillion Ct 3 San Jose, CA 95133 $375,000 903 sq. ft. 1,498 sq. ft. $415
2017-06-21 Condo 3192 Cropley Ave San Jose, CA 95132 $525,000 1,003 sq. ft. 706 sq. ft. $523
2017-06-21 Condo 834 Owens Lake Dr San Jose, CA 95123 $570,000 867 sq. ft. 1,211 sq. ft. $657
2017-06-21 Condo Modern / High Tech 125 Patterson St 136 San Jose, CA 95112 $575,000 1,218 sq. ft. 727 sq. ft. $472
2017-06-21 Condo 4631 Columbia River Ct San Jose, CA 95136 $649,900 1,760 sq. ft. 1,847 sq. ft. $369
2017-06-21 Condo 4644 Hampton Falls Pl San Jose, CA 95136 $749,950 1,745 sq. ft. 436 sq. ft. $430
2017-06-21 Condo 801 S Winchester Blvd 5202 San Jose, CA 95128 $688,000 986 sq. ft. 893 sq. ft. $698
2017-06-20 Condo Farm House 1076 Myrtle St San Jose, CA 95126 $978,000 1,666 sq. ft. 6,251 sq. ft. $587
2017-06-20 Condo Farm House 1074 Myrtle St San Jose, CA 95126 $988,000 1,722 sq. ft. 6,251 sq. ft. $574
2017-06-19 Condo 136 Spyglass Hill Rd San Jose, CA 95127 $649,888 1,703 sq. ft. 2,239 sq. ft. $382
2017-06-19 Condo 1737 Abington Ct San Jose, CA 95131 $600,000 987 sq. ft. 1,577 sq. ft. $608
2017-06-19 Condo 1898 Meridian Ave 36 San Jose, CA 95125 $669,888 1,312 sq. ft. 1,398 sq. ft. $511
2017-06-19 Condo 88 N Jackson Ave 303 San Jose, CA 95116 $448,888 1,056 sq. ft. 1,054 sq. ft. $425
2017-06-19 Condo 5234 Macaw Way San Jose, CA 95123 $529,000 1,052 sq. ft. 1,612 sq. ft. $503
2017-06-19 Condo 809 Basking Ln San Jose, CA 95138 $699,000 1,705 sq. ft. 1,703 sq. ft. $410
2017-06-19 Condo Contemporary 4786 Hatfield Walkway 3 San Jose, CA 95124 $519,000 903 sq. ft. 2,579 sq. ft. $575
2017-06-18 Condo Contemporary; Traditional 2925 Florence Ave 25 San Jose, CA 95127 $368,000 960 sq. ft. 958 sq. ft. $383
2017-06-18 Condo 2712 Buena View Ct San Jose, CA 95121 $585,000 843 sq. ft. 1,211 sq. ft. $694
2017-06-17 Condo 8786 Grape Wagon Cir San Jose, CA 95135 $825,000 1,675 sq. ft. 436 sq. ft. $493
2017-06-17 Condo 1550 Technology Dr 3089 San Jose, CA 95110 $500,000 831 sq. ft. 832 sq. ft. $602
2017-06-17 Condo 701 Applause Pl San Jose, CA 95134 $660,000 925 sq. ft. 1,577 sq. ft. $714
2017-06-16 Condo 1362 Branham Ln 3 San Jose, CA 95118 $449,950 903 sq. ft. 7,078 sq. ft. $498
2017-06-16 Condo 5193 Cribari Hls San Jose, CA 95135 $525,000 1,223 sq. ft. 1,664 sq. ft. $429
2017-06-16 Condo 8352 Charbono Ct San Jose, CA 95135 $649,000 1,370 sq. ft. 2,962 sq. ft. $474
2017-06-16 Condo Contemporary 144 S 3rd St 125 San Jose, CA 95112 $699,950 1,542 sq. ft. 841 sq. ft. $454
2017-06-16 Condo 2023 E San Antonio St San Jose, CA 95116 $590,000 1,278 sq. ft. 1,307 sq. ft. $462
2017-06-16 Condo Contemporary 3873 Jasmine Cir San Jose, CA 95135 $650,000 1,037 sq. ft. 1,198 sq. ft. $627
2017-06-16 Condo Contemporary 1030 N Jackson Ave San Jose, CA 95133 $749,888 1,697 sq. ft. 436 sq. ft. $442
2017-06-15 Condo 5390 Colony Park Cir San Jose, CA 95123 $499,000 942 sq. ft. 436 sq. ft. $530
2017-06-15 Condo 860 Catkin Ct San Jose, CA 95128 $525,000 922 sq. ft. 1,960 sq. ft. $569
2017-06-15 Condo 2176 Luz Ave San Jose, CA 95116 $398,888 956 sq. ft. 976 sq. ft. $417
2017-06-15 Condo 1040 Lincoln Village Dr San Jose, CA 95125 $849,000 1,319 sq. ft. 3,058 sq. ft. $644
2017-06-15 Condo English 848 Georgetown Pl San Jose, CA 95126 $949,000 1,859 sq. ft. 1,006 sq. ft. $510
2017-06-15 Condo 503 Golfview Dr San Jose, CA 95127 $679,000 1,640 sq. ft. 2,082 sq. ft. $414
2017-06-15 Condo 1133 Quail Run Ct San Jose, CA 95118 $715,000 1,420 sq. ft. 1,442 sq. ft. $504
2017-06-15 Condo 5428 Cribari Ct San Jose, CA 95135 $475,000 1,240 sq. ft. 1,664 sq. ft. $383
2017-06-15 Condo Contemporary 5214 Jacana Ln San Jose, CA 95123 $600,000 1,142 sq. ft. 1,821 sq. ft. $525
2017-06-15 Condo Mediterranean 516 Martha St 106 San Jose, CA 95112 $495,000 742 sq. ft. 745 sq. ft. $667
2017-06-15 Condo 5486 Don Andres Way San Jose, CA 95123 $449,950 884 sq. ft. 2,082 sq. ft. $509
2017-06-15 Condo 1137 Cooper River Dr San Jose, CA 95126 $748,888 1,150 sq. ft. 1,150 sq. ft. $651
2017-06-14 Condo 7680 Galloway Dr San Jose, CA 95135 $778,000 1,751 sq. ft. $444
2017-06-14 Condo 134 Monte Verano Ct San Jose, CA 95116 $379,000 902 sq. ft. 1,812 sq. ft. $420
2017-06-14 Condo 7079 Cypress Point Ct San Jose, CA 95139 $590,000 1,656 sq. ft. 2,113 sq. ft. $356
2017-06-14 Condo Contemporary 7714 Galloway Dr San Jose, CA 95135 $615,000 1,490 sq. ft. 436 sq. ft. $413
2017-06-14 Condo 721 Modern Ice Dr San Jose, CA 95112 $698,000 1,330 sq. ft. 1,342 sq. ft. $525
2017-06-14 Condo 4260 Ballatore Dr San Jose, CA 95134 $935,000 1,405 sq. ft. 871 sq. ft. $665
2017-06-14 Condo 106 Monte Verano Ct San Jose, CA 95116 $299,000 597 sq. ft. 1,812 sq. ft. $501
2017-06-14 Condo 415 Capricorn Ct San Jose, CA 95111 $399,000 1,197 sq. ft. 1,459 sq. ft. $333
2017-06-13 Condo 4551 Huntington Ln San Jose, CA 95136 $853,990 1,990 sq. ft. 1,660 sq. ft. $429
2017-06-13 Condo 4575 Huntington Ln San Jose, CA 95136 $856,990 2,009 sq. ft. 1,246 sq. ft. $427
2017-06-13 Condo 5703 Makati Cir C San Jose, CA 95123 $499,000 995 sq. ft. $502
2017-06-13 Condo Contemporary 1477 W San Carlos St San Jose, CA 95126 $797,000 1,468 sq. ft. 1,912 sq. ft. $543
2017-06-13 Condo Traditional 8600 Vineyard Creek Ct San Jose, CA 95135 $725,000 1,415 sq. ft. 436 sq. ft. $512
2017-06-13 Condo 2136 Sheffield Dr San Jose, CA 95131 $848,950 1,376 sq. ft. 2,026 sq. ft. $617
2017-06-13 Condo 2180 Mendocino Ln San Jose, CA 95124 $849,000 1,464 sq. ft. 1,407 sq. ft. $580
2017-06-13 Condo 410 Auburn Way 11 San Jose, CA 95129 $518,000 1,099 sq. ft. 549 sq. ft. $471
2017-06-13 Condo 951 S 12th St 104 San Jose, CA 95112 $499,000 1,277 sq. ft. 1,276 sq. ft. $391
2017-06-13 Condo 490 Auburn Way 9 San Jose, CA 95129 $579,950 1,099 sq. ft. 549 sq. ft. $528
2017-06-13 Condo 47 Silcreek Dr San Jose, CA 95116 $468,888 1,318 sq. ft. 436 sq. ft. $356
2017-06-13 Condo 217 Banana Grove Ln San Jose, CA 95123 $599,950 1,166 sq. ft. 1,873 sq. ft. $515
2017-06-12 Condo Contemporary 2738 Goble Ln 1 San Jose, CA 95111 $749,000 1,452 sq. ft. 1,433 sq. ft. $516
2017-06-12 Condo 5034 Cribari Vale San Jose, CA 95135 $434,950 1,223 sq. ft. 1,664 sq. ft. $356
2017-06-12 Condo 411 Park Ave 219 San Jose, CA 95110 $548,000 1,048 sq. ft. 1,742 sq. ft. $523
2017-06-12 Condo 1558 Alma Terrace San Jose, CA 95125 $569,000 1,071 sq. ft. 436 sq. ft. $531
2017-06-12 Condo 101 Bob Hansen Ct San Jose, CA 95116 $530,000 1,272 sq. ft. 1,664 sq. ft. $417
2017-06-12 Condo Contemporary 7529 Morevern Cir San Jose, CA 95135 $721,000 1,572 sq. ft. 2,082 sq. ft. $459
2017-06-12 Condo 97 E Saint James St 38 San Jose, CA 95112 $599,000 1,203 sq. ft. 436 sq. ft. $498
2017-06-12 Condo Contemporary 354 Powerscourt Way San Jose, CA 95136 $735,000 1,568 sq. ft. 1,568 sq. ft. $469
2017-06-11 Condo 172 Oakbrook Cir Cl San Jose, CA 95139 $488,888 1,008 sq. ft. 1,041 sq. ft. $485
2017-06-10 Condo 3364 Bolsena Ct San Jose, CA 95135 $749,000 1,776 sq. ft. 1,808 sq. ft. $422
2017-06-10 Condo 2352 Warfield Way B San Jose, CA 95122 $420,000 885 sq. ft. 1,011 sq. ft. $475
2017-06-10 Condo Contemporary 826 Sevin Ter San Jose, CA 95133 $748,000 1,369 sq. ft. 1,350 sq. ft. $546
2017-06-10 Condo 88 N Jackson Ave 124 San Jose, CA 95116 $485,000 1,056 sq. ft. 1,054 sq. ft. $459
2017-06-10 Condo 1550 Technology Dr 1036 San Jose, CA 95110 $498,000 875 sq. ft. 876 sq. ft. $569
2017-06-10 Condo 1071 Foxchase Dr San Jose, CA 95123 $579,000 1,326 sq. ft. 1,324 sq. ft. $437
2017-06-10 Condo Contemporary 350 N 2nd St 309 San Jose, CA 95112 $585,000 976 sq. ft. 1,115 sq. ft. $599
2017-06-10 Condo 183 W Alma Ave San Jose, CA 95110 $589,000 1,200 sq. ft. 1,917 sq. ft. $491
2017-06-10 Condo Contemporary 3321 Lake Albano Cir San Jose, CA 95135 $739,950 1,776 sq. ft. 1,799 sq. ft. $417
2017-06-09 Condo 7738 Kilmarnok Dr San Jose, CA 95135 $619,000 1,490 sq. ft. 436 sq. ft. $415
2017-06-08 Condo 4580 Waterville Dr San Jose, CA 95118 $540,000 987 sq. ft. $547
2017-06-08 Condo Contemporary 5637 Calmor Ave 3 San Jose, CA 95123 $390,000 903 sq. ft. 8,259 sq. ft. $432
2017-06-08 Condo 1192 Brightside Ct San Jose, CA 95127 $439,000 1,000 sq. ft. 1,716 sq. ft. $439
2017-06-08 Condo 490 Owlswood Way San Jose, CA 95111 $485,000 1,197 sq. ft. 1,459 sq. ft. $405
2017-06-08 Condo 1521 Fledermaus Ct San Jose, CA 95121 $509,000 1,474 sq. ft. 1,011 sq. ft. $345
2017-06-08 Condo 1823 Ashmeade Ct San Jose, CA 95125 $749,000 1,071 sq. ft. 1,498 sq. ft. $699
2017-06-08 Condo 1961 Foxhall Loop San Jose, CA 95125 $819,888 1,529 sq. ft. 1,498 sq. ft. $536
2017-06-08 Condo 461 Northlake Dr 20 San Jose, CA 95117 $848,888 1,626 sq. ft. 810 sq. ft. $522
2017-06-08 Condo 3265 Heather Ridge Ct San Jose, CA 95136 $579,000 1,067 sq. ft. 1,067 sq. ft. $543
2017-06-08 Condo 3819 Seven Trees Blvd 302 San Jose, CA 95111 $425,000 999 sq. ft. $425
2017-06-07 Condo 107 Bob Hansen Court San Jose, CA 95116 $500,000 1,249 sq. ft. 1,307 sq. ft. $400
2017-06-07 Condo 107 Bob Hansen Ct San Jose, CA 95116 $500,000 1,249 sq. ft. 1,424 sq. ft. $400
2017-06-07 Condo 112 Bob Hansen Ct San Jose, CA 95116 $540,000 1,495 sq. ft. 1,424 sq. ft. $361
2017-06-07 Condo 6322 Whaley Dr San Jose, CA 95135 $589,000 1,102 sq. ft. 2,431 sq. ft. $534
2017-06-07 Condo 2377 Lava Dr San Jose, CA 95133 $688,000 1,596 sq. ft. 1,542 sq. ft. $431
2017-06-07 Condo Contemporary 5043 Le Miccine Ter San Jose, CA 95129 $999,800 1,366 sq. ft. 1,002 sq. ft. $732
2017-06-07 Condo 562 N 7th St San Jose, CA 95112 $739,000 1,280 sq. ft. 545 sq. ft. $577
2017-06-07 Condo 1169 Foxchase Dr San Jose, CA 95123 $530,000 1,150 sq. ft. 436 sq. ft. $461
2017-06-06 Condo 38 N Almaden Blvd 2015 San Jose, CA 95110 $1,050,000 1,306 sq. ft. 166 sq. ft. $804
2017-06-06 Condo 801 S Winchester Blvd 1108 San Jose, CA 95128 $699,000 986 sq. ft. 893 sq. ft. $709
2017-06-06 Condo Contemporary 1637 Marconi Way San Jose, CA 95125 $974,988 2,010 sq. ft. 2,226 sq. ft. $485
2017-06-06 Condo 368 Tower Hill Ave San Jose, CA 95136 $699,000 1,487 sq. ft. 1,080 sq. ft. $470
2017-06-06 Condo Contemporary 1479 Bullion Ct San Jose, CA 95120 $1,250,000 2,454 sq. ft. 2,762 sq. ft. $509
2017-06-05 Condo 88 Bush St 2203 San Jose, CA 95126 $849,000 1,444 sq. ft. 897 sq. ft. $588
2017-06-05 Condo Contemporary 6224 Gerdts Dr San Jose, CA 95135 $809,000 1,704 sq. ft. 2,831 sq. ft. $475
2017-06-05 Condo Contemporary 297 Tradewinds Dr 202 San Jose, CA 95123 $564,961 1,466 sq. ft. 436 sq. ft. $385
2017-06-05 Condo 1485 De Rose Way 220 San Jose, CA 95126 $599,000 1,224 sq. ft. 1,224 sq. ft. $489
2017-06-05 Condo 7724 Kilmarnok Dr San Jose, CA 95135 $615,000 1,490 sq. ft. 436 sq. ft. $413
2017-06-03 Condo 6226 Gerdts Dr San Jose, CA 95135 $849,900 1,704 sq. ft. 2,788 sq. ft. $499
2017-06-03 Condo 1060 S 3rd St 104 San Jose, CA 95112 $399,000 667 sq. ft. 741 sq. ft. $598
2017-06-03 Condo 1098 Indian Summer Ct San Jose, CA 95122 $475,000 1,052 sq. ft. 523 sq. ft. $452
2017-06-03 Condo 1583 Delante Ter San Jose, CA 95118 $679,000 1,013 sq. ft. 828 sq. ft. $670
2017-06-03 Condo 5536 Cribari Cir San Jose, CA 95135 $410,000 1,240 sq. ft. 1,655 sq. ft. $331
2017-06-03 Condo 1550 Technology Dr 2120 San Jose, CA 95110 $475,000 831 sq. ft. 828 sq. ft. $572
2017-06-03 Condo 223 Rosarno Ct San Jose, CA 95111 $674,950 1,450 sq. ft. 1,133 sq. ft. $465
2017-06-03 Condo Traditional 7658 Falkirk Dr San Jose, CA 95135 $728,888 1,509 sq. ft. 1,917 sq. ft. $483
2017-06-01 Condo 1136 Holly Oak Cir San Jose, CA 95120 $779,000 1,299 sq. ft. 2,962 sq. ft. $600
2017-06-01 Condo 1322 Joplin Dr 4 San Jose, CA 95118 $438,888 798 sq. ft. 8,059 sq. ft. $550
2017-06-01 Condo 2011 Quadros Ln San Jose, CA 95131 $610,000 994 sq. ft. 1,960 sq. ft. $614
2017-06-01 Condo 19 N Willard Ave San Jose, CA 95126 $888,000 1,616 sq. ft. 1,437 sq. ft. $550
2017-06-01 Condo 482 Marble Arch Ave San Jose, CA 95136 $700,000 1,983 sq. ft. 2,004 sq. ft. $353
2017-06-01 Condo 387 Lewis Rd San Jose, CA 95111 $499,000 1,144 sq. ft. 3,180 sq. ft. $436
2017-05-31 Condo 5866 Smoky Quartz Loop San Jose, CA 95123 $789,888 1,712 sq. ft. 1,350 sq. ft. $461
2017-05-31 Condo 2560 Baton Rouge Dr San Jose, CA 95133 $699,888 1,504 sq. ft. 1,176 sq. ft. $465
2017-05-31 Condo Contemporary 259 N Capitol Ave 166 San Jose, CA 95127 $385,000 828 sq. ft. $465
2017-05-31 Condo 133 Monte Verano Ct San Jose, CA 95116 $359,000 877 sq. ft. 1,830 sq. ft. $409
2017-05-31 Condo 1583 Sandra Kay Ct San Jose, CA 95126 $649,000 1,068 sq. ft. 2,614 sq. ft. $608
2017-05-31 Condo Contemporary 350 N 2nd St 142 San Jose, CA 95112 $579,000 1,238 sq. ft. 1,220 sq. ft. $468
2017-05-30 Condo 531 Giuffrida Ave G San Jose, CA 95123 $525,000 1,333 sq. ft. 2,962 sq. ft. $394
2017-05-30 Condo 4807 Capay Dr 1 San Jose, CA 95118 $438,888 810 sq. ft. 7,187 sq. ft. $542
2017-05-27 Condo 1292 Bouret Dr 4 San Jose, CA 95118 $429,950 798 sq. ft. 7,100 sq. ft. $539
2017-05-26 Condo 333 Blossom Hill Rd 2 San Jose, CA 95123 $389,000 903 sq. ft. 76,230,000 sq. ft. $431
2017-05-26 Condo 1670 Los Suenos Ave San Jose, CA 95116 $535,000 1,254 sq. ft. 2,222 sq. ft. $427
2017-05-26 Condo Contemporary 3319 Swancreek Ct San Jose, CA 95121 $545,888 1,234 sq. ft. 1,350 sq. ft. $442
2017-05-26 Condo 1118 Chicory Ct San Jose, CA 95120 $750,000 1,124 sq. ft. 2,265 sq. ft. $667
2017-05-26 Condo Contemporary; Modern / High Tech 333 Santana Row 220 San Jose, CA 95128 $1,098,890 1,405 sq. ft. 436 sq. ft. $782
2017-05-26 Condo Traditional 7388 Via Laguna San Jose, CA 95135 $819,500 1,837 sq. ft. 436 sq. ft. $446
2017-05-25 Condo 88 N Jackson Ave 128 San Jose, CA 95116 $525,900 1,200 sq. ft. 1,220 sq. ft. $438
2017-05-24 Condo Contemporary 1055 N Capitol Ave 21 San Jose, CA 95133 $380,000 632 sq. ft. 784 sq. ft. $601
2017-05-22 Condo Contemporary 130 E San Fernando St 412 San Jose, CA 95112 $719,888 1,622 sq. ft. 566 sq. ft. $444
2017-05-20 Condo 6509 Crenshaw Ct San Jose, CA 95120 $790,000 1,628 sq. ft. 1,786 sq. ft. $485
2017-05-19 Condo 1060 S 3rd St 170 San Jose, CA 95112 $548,000 1,100 sq. ft. 741 sq. ft. $498
2017-05-19 Condo 6978 Silver Fox Dr San Jose, CA 95120 $959,000 1,739 sq. ft. 1,220 sq. ft. $551
2017-05-19 Condo Contemporary 1657 Cedarcreek Ct San Jose, CA 95121 $590,000 1,508 sq. ft. 1,394 sq. ft. $391
2017-05-19 Condo 3321 Skyward Pl San Jose, CA 95136 $635,000 1,285 sq. ft. 1,045 sq. ft. $494
2017-05-19 Condo Contemporary; Modern / High Tech 88 E San Fernando St 910 San Jose, CA 95113 $599,000 889 sq. ft. 261 sq. ft. $674
2017-05-18 Condo 3141 Shofner Pl San Jose, CA 95111 $450,000 1,322 sq. ft. 2,004 sq. ft. $340
2017-05-18 Condo 593 Carpentier Way San Jose, CA 95111 $465,000 1,322 sq. ft. 610 sq. ft. $352
2017-05-18 Condo 144 S 3rd St 424 San Jose, CA 95112 $670,000 1,421 sq. ft. 1,525 sq. ft. $472
2017-05-18 Condo Contemporary 2125 Oakland Rd San Jose, CA 95131 $728,000 1,213 sq. ft. 2,265 sq. ft. $600
2017-05-18 Condo 1817 Queen Victoria Way San Jose, CA 95132 $599,000 1,176 sq. ft. 871 sq. ft. $509
2017-05-18 Condo Contemporary 1894 Shilling Ct San Jose, CA 95132 $700,000 1,474 sq. ft. 1,002 sq. ft. $475
2017-05-17 Condo 1176 Bird Ave San Jose, CA 95125 $735,000 1,244 sq. ft. 915 sq. ft. $591
2017-05-16 Condo Mediterranean 346 Adeline Ave 212 San Jose, CA 95136 $799,000 1,721 sq. ft. 828 sq. ft. $464
2017-05-16 Condo 1336 Meadow Ridge Cir San Jose, CA 95131 $599,000 896 sq. ft. 1,045 sq. ft. $669
2017-05-16 Condo 5937 Fiddletown Pl San Jose, CA 95120 $1,150,000 2,454 sq. ft. 2,831 sq. ft. $469
2017-05-16 Condo 259 N Capitol Ave 215 San Jose, CA 95127 $299,980 777 sq. ft. 1,742 sq. ft. $386
2017-05-16 Condo 2318 Lincoln Ave San Jose, CA 95125 $849,888 1,684 sq. ft. 2,047 sq. ft. $505
2017-05-15 Condo 7140 Clarendon St San Jose, CA 95129 $1,248,890 1,448 sq. ft. 741 sq. ft. $862
2017-05-13 Condo Mediterranean 3093 Lina Ln 5 San Jose, CA 95136 $765,255 1,668 sq. ft. $459
2017-05-13 Condo 393 Tower Hill Ave San Jose, CA 95136 $899,000 2,356 sq. ft. 1,176 sq. ft. $382
2017-05-12 Condo Modern / High Tech 333 Santana Row 226 San Jose, CA 95128 $1,588,000 1,881 sq. ft. 436 sq. ft. $844
2017-05-12 Condo 243 Vista Roma Way San Jose, CA 95136 $799,000 1,878 sq. ft. 3,049 sq. ft. $425
2017-05-11 Condo Contemporary; Modern / High Tech 450 E Mission St 4 San Jose, CA 95112 $700,000 1,241 sq. ft. 1,699 sq. ft. $564
2017-05-11 Condo Contemporary 606 Almaden Walk Loop San Jose, CA 95125 $658,000 1,327 sq. ft. 14,680 sq. ft. $496
2017-05-09 Condo Contemporary 2109 Sunstruck Ct San Jose, CA 95125 $635,000 1,144 sq. ft. 1,568 sq. ft. $555
2017-05-09 Condo 5623 Playa Del Rey Ct 3 San Jose, CA 95123 $409,966 903 sq. ft. 10,367 sq. ft. $454
2017-05-09 Condo Contemporary 5516 Sean Cir 43 San Jose, CA 95123 $435,000 997 sq. ft. 3,615 sq. ft. $436
2017-05-08 Condo 3052 San Jose Vineyard Place San Jose, CA 95136 $911,835 1,995 sq. ft. $457
2017-05-08 Condo Lina San Jose, CA 95136 $742,128 1,658 sq. ft. $448
2017-05-06 Condo 404 Tortola Way San Jose, CA 95133 $469,000 1,067 sq. ft. 784 sq. ft. $440
2017-05-05 Condo 5538 Cribari Cir San Jose, CA 95135 $421,500 1,240 sq. ft. 1,655 sq. ft. $340
2017-05-05 Condo 478 Marble Arch Ave San Jose, CA 95136 $820,000 1,983 sq. ft. 2,004 sq. ft. $414
2017-05-05 Condo 31 Muirfield Ct San Jose, CA 95116 $350,000 780 sq. ft. 2,134 sq. ft. $449
2017-05-05 Condo 88 E San Fernando St 1307 San Jose, CA 95113 $650,000 830 sq. ft. 261 sq. ft. $783
2017-05-03 Condo 130 E San Fernando St 416 San Jose, CA 95112 $705,000 1,622 sq. ft. 566 sq. ft. $435
2017-05-03 Condo 305 Casselino Dr San Jose, CA 95136 $780,000 1,810 sq. ft. 828 sq. ft. $431
2017-05-03 Condo 1430 Crucero Dr B San Jose, CA 95122 $435,000 1,150 sq. ft. 610 sq. ft. $378
2017-05-02 Condo 508 King George Ave San Jose, CA 95136 $690,000 1,690 sq. ft. 1,699 sq. ft. $408
2017-05-02 Condo 2388 Lava Dr San Jose, CA 95133 $618,000 1,342 sq. ft. 1,525 sq. ft. $461
2017-05-02 Condo 1024 Summerplace Dr San Jose, CA 95122 $335,000 730 sq. ft. $459
2017-05-01 Condo 6115 Heathercreek Way San Jose, CA 95123 $850,000 2,376 sq. ft. 6,055 sq. ft. $358
2017-04-28 Condo 4691 Albany Cir 119 San Jose, CA 95129 $838,000 1,350 sq. ft. 1,786 sq. ft. $621
2017-04-27 Condo 518 Marble Arch Ave 618 San Jose, CA 95136 $729,915 1,983 sq. ft. 2,004 sq. ft. $368
2017-04-27 Condo Contemporary 5635 Blossom Park Ln San Jose, CA 95118 $635,000 1,224 sq. ft. 871 sq. ft. $519
2017-04-27 Condo 5516 Spinnaker Dr 2 San Jose, CA 95123 $359,000 903 sq. ft. 1,742 sq. ft. $398
2017-04-27 Condo 110 Rancho Dr C San Jose, CA 95111 $370,000 822 sq. ft. 1,742 sq. ft. $450
2017-04-26 Condo Contemporary 465 Mill River San Jose, CA 95134 $920,000 1,546 sq. ft. 1,612 sq. ft. $595
2017-04-26 Condo Modern / High Tech 88 Bush St 1106 San Jose, CA 95126 $825,000 1,275 sq. ft. 479 sq. ft. $647
2017-04-25 Condo 113 Bob Hansen Ct San Jose, CA 95116 $500,000 1,249 sq. ft. 1,437 sq. ft. $400
2017-04-23 Condo Contemporary 934 Bellhurst Ave San Jose, CA 95122 $398,000 986 sq. ft. 784 sq. ft. $404
2017-04-22 Condo Bungalow 6037 Montgomery Cors San Jose, CA 95135 $398,000 650 sq. ft. 653 sq. ft. $612
2017-04-22 Condo 8451 Traminer San Jose, CA 95135 $649,900 1,571 sq. ft. 3,049 sq. ft. $414
2017-04-21 Condo Traditional 1087 Almaden Village Ln San Jose, CA 95120 $862,000 1,672 sq. ft. 1,437 sq. ft. $516
2017-04-20 Condo Contemporary 2664 Salome San Jose, CA 95121 $528,888 1,474 sq. ft. 1,002 sq. ft. $359
2017-04-19 Condo 8451 Traminer San Jose, CA 95135 $649,900 1,571 sq. ft. 3,223 sq. ft. $414
2017-04-19 Condo 860 N 8th St San Jose, CA 95112 $749,950 1,675 sq. ft. 1,699 sq. ft. $448
2017-04-18 Condo 400 N 1st 115 San Jose, CA 95112 $569,000 1,113 sq. ft. 697 sq. ft. $511
2017-04-18 Condo Modern / High Tech 350 N 2nd St 112 San Jose, CA 95112 $559,000 976 sq. ft. 1,133 sq. ft. $573
2017-04-14 Condo Contemporary 5513 Great Oaks Pkwy San Jose, CA 95123 $735,000 1,531 sq. ft. $480
2017-04-13 Condo 554 Toyon Ave 11 San Jose, CA 95127 $579,999 1,419 sq. ft. 1,525 sq. ft. $409
2017-04-13 Condo 3057 #1 San Jose Vineyard Place San Jose, CA 95136 $813,132 1,818 sq. ft. $447
2017-04-12 Condo 801 S Winchester Blvd 1206 San Jose, CA 95128 $689,000 986 sq. ft. 915 sq. ft. $699
2017-04-12 Condo 2515 Dillion Ct 4 San Jose, CA 95133 $365,888 798 sq. ft. 1,481 sq. ft. $459
2017-04-07 Condo 6041 Sunstone Dr San Jose, CA 95123 $809,950 2,258 sq. ft. 1,612 sq. ft. $359
2017-04-05 Condo Ranch 1269 Adrian Way San Jose, CA 95122 $640,000 1,200 sq. ft. 5,140 sq. ft. $533
2017-04-05 Condo 2881 Meridian Ave 168 San Jose, CA 95124 $534,950 971 sq. ft. 1,220 sq. ft. $551
2017-04-01 Condo 954 Summerplace Dr San Jose, CA 95122 $435,000 1,124 sq. ft. 436 sq. ft. $387
2017-04-01 Condo 5115 Cribari Pl San Jose, CA 95135 $384,900 1,240 sq. ft. 1,655 sq. ft. $310
2017-03-31 Condo 494 Coyote Creek Cir San Jose, CA 95116 $359,999 633 sq. ft. 1,133 sq. ft. $569
2017-03-31 Condo 8416 Chenin Blanc Ln San Jose, CA 95135 $689,000 1,497 sq. ft. 2,657 sq. ft. $460
2017-03-31 Condo Contemporary 5561 Great Oaks Pkwy 25 San Jose, CA 95123 $730,578 1,356 sq. ft. $539
2017-03-30 Condo 7376 Via Montecitos San Jose, CA 95135 $699,000 1,781 sq. ft. 2,614 sq. ft. $392
2017-03-28 Condo Luxury 38 N Almaden Blvd 505 San Jose, CA 95110 $635,888 956 sq. ft. 174 sq. ft. $665
2017-03-23 Condo 4545 Huntington Ln San Jose, CA 95136 $851,990 1,990 sq. ft. 0 sq. ft. $428
2017-03-22 Condo 2292 Warfield Way B San Jose, CA 95122 $419,000 885 sq. ft. 1,002 sq. ft. $473
2017-03-21 Condo 1547 Desdemona Ct San Jose, CA 95121 $489,000 1,176 sq. ft. 871 sq. ft. $416
2017-03-13 Condo 829 N Capitol Ave 2 San Jose, CA 95133 $415,000 903 sq. ft. 1,481 sq. ft. $460
2017-03-10 Condo Modern / High Tech 175 W Saint James St 110 San Jose, CA 95110 $575,000 796 sq. ft. 305 sq. ft. $722
2017-03-02 Condo Mediterranean 1433 Allegado Aly San Jose, CA 95128 $699,000 1,860 sq. ft. 1,612 sq. ft. $376
2017-03-02 Condo 356 Santana Row 300 San Jose, CA 95128 $1,899,000 2,368 sq. ft. 436 sq. ft. $802
2017-02-23 Condo 8018 Pinot Noir Ct San Jose, CA 95135 $395,000 811 sq. ft. 915 sq. ft. $487
2017-02-09 Condo Contemporary; Modern / High Tech 38 N Almaden Blvd 1119 San Jose, CA 95110 $920,000 1,220 sq. ft. 174 sq. ft. $754
2017-02-03 Condo Contemporary 1414 Mcquesten Dr B San Jose, CA 95122 $399,000 1,150 sq. ft. 610 sq. ft. $347
2017-02-03 Condo 1091 Foxglove Pl 202 San Jose, CA 95131 $899,000 1,850 sq. ft. 1,133 sq. ft. $486
2017-01-24 Condo Contemporary 2475 Sequester Ct San Jose, CA 95133 $365,000 829 sq. ft. $440
2017-01-20 Condo 7772 Beltane Dr San Jose, CA 95135 $598,500 1,490 sq. ft. 436 sq. ft. $402
2017-01-04 Condo 8423 Chenin Blanc Ln San Jose, CA 95135 $695,000 1,803 sq. ft. 3,354 sq. ft. $385
2016-10-28 Condo Contemporary 2134 Luz Ave San Jose, CA 95116 $449,000 1,192 sq. ft. 1,176 sq. ft. $377